Time;durP1;ratioP1;P1;durP2;ratioP2;P2;SDS_P1;SDS_P2;PMS_P1;PMS_P2;Temp;Humidity;BMP_temperature;BMP_pressure;BME280_temperature;BME280_humidity;BME280_pressure;Samples;Min_cycle;Max_cycle;Signal;HPM_P1;HPM_P2
2023/05/18 00:00:45;;;;;;;4.75;2.95;;;307.90;2304.00;;;;;;5041361;28;20364;-57
2023/05/18 00:03:11;;;;;;;6.35;3.30;;;307.80;2304.00;;;;;;5041664;28;20400;-56
2023/05/18 00:05:37;;;;;;;4.75;3.20;;;307.80;2304.00;;;;;;5056595;28;20025;-57
2023/05/18 00:08:03;;;;;;;7.57;4.78;;;307.90;2304.00;;;;;;5048792;28;20033;-68
2023/05/18 00:10:28;;;;;;;4.18;2.63;;;307.90;2304.00;;;;;;5055422;28;20453;-66
2023/05/18 00:12:54;;;;;;;5.70;3.67;;;307.80;2304.00;;;;;;5036140;28;20053;-66
2023/05/18 00:15:20;;;;;;;4.20;3.47;;;307.90;2304.00;;;;;;5055541;28;20032;-69
2023/05/18 00:17:47;;;;;;;4.57;2.85;;;307.90;2304.00;;;;;;5047944;28;20548;-69
2023/05/18 00:20:14;;;;;;;4.70;3.22;;;307.80;2304.00;;;;;;5050135;28;20037;-69
2023/05/18 00:22:41;;;;;;;6.78;4.45;;;307.70;2304.00;;;;;;5042037;28;20040;-63
2023/05/18 00:25:07;;;;;;;5.53;4.03;;;307.80;2304.00;;;;;;5054035;28;20380;-68
2023/05/18 00:27:33;;;;;;;7.30;6.03;;;307.70;2304.00;;;;;;5042713;28;20029;-57
2023/05/18 00:29:58;;;;;;;4.97;3.33;;;307.70;2304.00;;;;;;5040117;28;20112;-58
2023/05/18 00:32:24;;;;;;;4.32;2.95;;;307.70;2304.00;;;;;;5040824;28;20033;-66
2023/05/18 00:34:50;;;;;;;6.53;4.00;;;307.80;2304.00;;;;;;5047069;28;20025;-58
2023/05/18 00:37:16;;;;;;;7.38;5.75;;;307.70;2304.00;;;;;;5050331;28;20052;-64
2023/05/18 00:39:41;;;;;;;4.05;3.00;;;307.60;2304.00;;;;;;5047813;28;20031;-57
2023/05/18 00:42:07;;;;;;;3.80;2.70;;;307.80;2304.00;;;;;;5038633;28;20028;-57
2023/05/18 00:44:33;;;;;;;5.63;3.25;;;307.60;2304.00;;;;;;5054236;28;20033;-69
2023/05/18 00:46:59;;;;;;;4.55;3.15;;;307.50;2304.00;;;;;;5041320;28;20029;-58
2023/05/18 00:49:26;;;;;;;5.10;2.75;;;307.70;2304.00;;;;;;5040162;28;20518;-65
2023/05/18 00:51:52;;;;;;;3.97;2.55;;;307.60;2304.00;;;;;;5035541;28;20053;-70
2023/05/18 00:54:18;;;;;;;5.50;3.00;;;307.60;2304.00;;;;;;5045918;28;20057;-57
2023/05/18 00:56:47;;;;;;;4.65;2.85;;;307.60;2304.00;;;;;;5037192;28;20585;-60
2023/05/18 00:59:14;;;;;;;3.95;3.15;;;307.60;2304.00;;;;;;5047534;28;20035;-64
2023/05/18 01:01:44;;;;;;;6.97;2.90;;;307.60;2304.00;;;;;;5040643;28;20041;-63
2023/05/18 01:04:12;;;;;;;7.47;4.72;;;307.50;2304.00;;;;;;5037073;28;20018;-58
2023/05/18 01:06:39;;;;;;;5.53;2.88;;;307.50;2304.00;;;;;;5048749;28;20032;-68
2023/05/18 01:09:08;;;;;;;3.95;2.28;;;307.50;2304.00;;;;;;5043852;28;20029;-65
2023/05/18 01:11:50;;;;;;;3.40;2.40;;;307.40;2304.00;;;;;;5042891;28;20040;-58
2023/05/18 01:14:23;;;;;;;5.20;2.78;;;307.50;2304.00;;;;;;5040989;28;20063;-64
2023/05/18 01:16:57;;;;;;;5.13;3.83;;;307.50;2304.00;;;;;;5054751;28;20055;-64
2023/05/18 01:19:49;;;;;;;3.97;2.17;;;307.30;2304.00;;;;;;5038995;28;20053;-61
2023/05/18 01:22:14;;;;;;;4.20;2.63;;;307.30;2304.00;;;;;;5048739;28;20079;-69
2023/05/18 01:24:47;;;;;;;5.07;3.25;;;307.30;2304.00;;;;;;5052260;28;20417;-69
2023/05/18 01:27:16;;;;;;;4.50;3.47;;;;;;;;;;5047875;28;20044;-57
2023/05/18 01:29:42;;;;;;;3.65;2.50;;;;;;;;;;5036421;28;20498;-57
2023/05/18 01:32:09;;;;;;;3.50;2.55;;;;;;;;;;5040964;28;20056;-71
2023/05/18 01:34:35;;;;;;;4.10;2.97;;;;;;;;;;5041810;28;20078;-60
2023/05/18 01:37:01;;;;;;;3.95;2.63;;;;;;;;;;5034644;28;20083;-63
2023/05/18 01:39:27;;;;;;;5.80;3.25;;;;;;;;;;5043321;28;20025;-66
2023/05/18 01:41:58;;;;;;;3.92;2.55;;;;;;;;;;5040196;28;20434;-58
2023/05/18 01:44:31;;;;;;;3.13;2.00;;;;;;;;;;5037782;28;20016;-64
2023/05/18 01:47:16;;;;;;;5.20;3.08;;;;;;;;;;5039626;28;20026;-61
2023/05/18 01:49:51;;;;;;;4.60;3.15;;;;;;;;;;5037314;28;20365;-63
2023/05/18 01:52:22;;;;;;;3.83;2.92;;;;;;;;;;5049970;28;20021;-69
2023/05/18 01:54:53;;;;;;;4.65;3.05;;;;;;;;;;5051267;28;20033;-71
2023/05/18 01:57:23;;;;;;;4.32;2.35;;;;;;;;;;5037874;28;20136;-58
2023/05/18 01:59:50;;;;;;;4.80;2.60;;;;;;;;;;5043435;28;20021;-57
2023/05/18 02:02:16;;;;;;;3.30;2.20;;;;;;;;;;5038937;28;20025;-57
2023/05/18 02:04:42;;;;;;;3.55;2.25;;;;;;;;;;5048219;28;20021;-63
2023/05/18 02:07:08;;;;;;;5.18;2.90;;;;;;;;;;5047484;28;20033;-58
2023/05/18 02:09:35;;;;;;;4.47;2.65;;;;;;;;;;5051374;28;20017;-69
2023/05/18 02:12:01;;;;;;;12.52;8.77;;;;;;;;;;5040756;28;20118;-69
2023/05/18 02:14:27;;;;;;;9.27;6.35;;;;;;;;;;5036274;28;20026;-68
2023/05/18 02:16:53;;;;;;;6.00;3.35;;;;;;;;;;5039760;28;20120;-69
2023/05/18 02:19:19;;;;;;;4.53;2.50;;;;;;;;;;5045265;28;20026;-57
2023/05/18 02:21:46;;;;;;;3.00;2.08;;;;;;;;;;5051670;28;20036;-58
2023/05/18 02:24:12;;;;;;;4.05;2.67;;;;;;;;;;5051908;28;20025;-62
2023/05/18 02:26:38;;;;;;;4.43;2.53;;;;;;;;;;5038894;28;20064;-65
2023/05/18 02:29:05;;;;;;;4.80;2.28;;;;;;;;;;5045466;28;20420;-61
2023/05/18 02:31:31;;;;;;;7.63;5.50;;;;;;;;;;5044507;28;20055;-63
2023/05/18 02:33:58;;;;;;;5.18;3.03;;;;;;;;;;5032510;28;20068;-57
2023/05/18 02:36:24;;;;;;;3.78;2.03;;;;;;;;;;5036358;28;20025;-58
2023/05/18 02:38:50;;;;;;;4.22;2.13;;;;;;;;;;5037971;28;20025;-57
2023/05/18 02:41:16;;;;;;;3.85;2.20;;;;;;;;;;5040247;28;20032;-65
2023/05/18 02:43:42;;;;;;;3.15;2.03;;;;;;;;;;5050178;28;20032;-69
2023/05/18 02:46:08;;;;;;;3.10;2.28;;;;;;;;;;5042527;28;20020;-58
2023/05/18 02:48:34;;;;;;;6.53;5.22;;;;;;;;;;5035738;28;20075;-69
2023/05/18 02:51:00;;;;;;;3.63;2.38;;;;;;;;;;5037644;28;20408;-57
2023/05/18 02:53:26;;;;;;;3.70;2.42;;;;;;;;;;5038536;28;20025;-57
2023/05/18 02:56:02;;;;;;;6.72;3.75;;;;;;;;;;5040428;28;20057;-58
2023/05/18 02:58:28;;;;;;;13.95;7.57;;;;;;;;;;5042464;28;20037;-69
2023/05/18 03:00:59;;;;;;;3.40;2.10;;;;;;;;;;5049236;28;20502;-57
2023/05/18 03:03:25;;;;;;;4.03;2.63;;;;;;;;;;5039458;28;20399;-68
2023/05/18 03:05:54;;;;;;;5.72;4.10;;;;;;;;;;5034440;28;20033;-57
2023/05/18 03:08:25;;;;;;;4.82;3.70;;;;;;;;;;5048964;28;20033;-57
2023/05/18 03:10:51;;;;;;;3.30;2.10;;;;;;;;;;5038262;28;20033;-57
2023/05/18 03:13:18;;;;;;;4.75;3.15;;;;;;;;;;5056263;28;20104;-57
2023/05/18 03:15:48;;;;;;;19.08;10.57;;;;;;;;;;5052021;28;20356;-58
2023/05/18 03:18:14;;;;;;;5.82;3.25;;;;;;;;;;5042254;28;20033;-64
2023/05/18 03:20:40;;;;;;;4.40;2.88;;;;;;;;;;5044819;28;20549;-57
2023/05/18 03:23:06;;;;;;;3.47;2.03;;;;;;;;;;5047949;28;20091;-67
2023/05/18 03:25:36;;;;;;;4.07;2.28;;;;;;;;;;5045347;28;20065;-57
2023/05/18 03:28:02;;;;;;;4.05;2.50;;;;;;;;;;5039565;28;20391;-59
2023/05/18 03:30:28;;;;;;;12.85;8.48;;;;;;;;;;5033652;28;20037;-57
2023/05/18 03:32:55;;;;;;;2.83;2.08;;;;;;;;;;5038096;28;20025;-58
2023/05/18 03:35:21;;;;;;;3.58;2.55;;;;;;;;;;5039974;28;20024;-63
2023/05/18 03:37:47;;;;;;;3.55;2.42;;;;;;;;;;5032466;28;20036;-57
2023/05/18 03:40:14;;;;;;;16.58;9.35;;;;;;;;;;5049388;28;20043;-63
2023/05/18 03:42:41;;;;;;;4.20;2.63;;;;;;;;;;5037734;28;20068;-69
2023/05/18 03:45:08;;;;;;;8.93;5.68;;;;;;;;;;5036746;28;20041;-65
2023/05/18 03:47:34;;;;;;;52.20;32.63;;;;;;;;;;5053017;28;20445;-62
2023/05/18 03:50:00;;;;;;;4.25;2.72;;;;;;;;;;5047035;28;20463;-68
2023/05/18 03:52:28;;;;;;;14.75;12.05;;;;;;;;;;5036235;28;20055;-65
2023/05/18 03:54:55;;;;;;;4.70;3.03;;;;;;;;;;5043330;28;20033;-58
2023/05/18 03:57:21;;;;;;;8.55;5.30;;;;;;;;;;5031631;28;20445;-57
2023/05/18 03:59:47;;;;;;;11.13;9.95;;;;;;;;;;5033486;28;20026;-68
2023/05/18 04:02:15;;;;;;;10.18;8.98;;;;;;;;;;5043655;28;20040;-58
2023/05/18 04:04:44;;;;;;;7.22;6.53;;;;;;;;;;5043472;28;20030;-69
2023/05/18 04:07:11;;;;;;;11.27;8.40;;;;;;;;;;5051186;28;20885;-57
2023/05/18 04:09:38;;;;;;;13.65;11.60;;;;;;;;;;5041558;28;20026;-58
2023/05/18 04:12:05;;;;;;;46.00;24.33;;;;;;;;;;5035724;28;20032;-57
2023/05/18 04:14:31;;;;;;;8.82;5.95;;;;;;;;;;5037967;28;20021;-69
2023/05/18 04:17:03;;;;;;;122.07;65.07;;;;;;;;;;5042705;28;20033;-58
2023/05/18 04:19:30;;;;;;;6.20;5.05;;;;;;;;;;5046286;28;20013;-58
2023/05/18 04:21:56;;;;;;;53.95;30.00;;;;;;;;;;5040944;28;20039;-57
2023/05/18 04:24:23;;;;;;;53.70;28.77;;;;;;;;;;5041296;28;20030;-58
2023/05/18 04:26:50;;;;;;;10.60;5.22;;;;;;;;;;5049332;28;20029;-65
2023/05/18 04:29:16;;;;;;;7.30;4.15;;;;;;;;;;5048690;28;20041;-58
2023/05/18 04:31:43;;;;;;;5.15;2.95;;;;;;;;;;5044425;28;20103;-59
2023/05/18 04:34:12;;;;;;;14.07;8.18;;;;;;;;;;5041466;28;20444;-57
2023/05/18 04:36:38;;;;;;;8.30;5.47;;;;;;;;;;5044510;28;20038;-62
2023/05/18 04:39:06;;;;;;;6.53;4.15;;;;;;;;;;5040631;28;20384;-57
2023/05/18 04:41:33;;;;;;;3.83;2.30;;;;;;;;;;5049251;28;20029;-57
2023/05/18 04:44:02;;;;;;;8.18;5.60;;;;;;;;;;5041710;28;20075;-57
2023/05/18 04:46:29;;;;;;;5.07;3.10;;;;;;;;;;5052568;28;20020;-69
2023/05/18 04:48:56;;;;;;;4.57;3.22;;;;;;;;;;5050988;28;20029;-70
2023/05/18 04:51:23;;;;;;;5.07;2.83;;;;;;;;;;5035400;28;20532;-57
2023/05/18 04:53:54;;;;;;;3.75;2.33;;;;;;;;;;5044678;28;20470;-58
2023/05/18 04:56:21;;;;;;;4.28;2.95;;;;;;;;;;5049034;28;20495;-57
2023/05/18 04:58:48;;;;;;;3.75;2.33;;;;;;;;;;5037724;28;20016;-65
2023/05/18 05:01:14;;;;;;;4.20;2.65;;;;;;;;;;5043466;28;20032;-58
2023/05/18 05:03:41;;;;;;;5.57;3.13;;;;;;;;;;5043297;28;20021;-57
2023/05/18 05:06:07;;;;;;;8.48;4.68;;;;;;;;;;5039091;28;20040;-63
2023/05/18 05:08:34;;;;;;;5.63;2.58;;;;;;;;;;5061182;28;20078;-57
2023/05/18 05:11:00;;;;;;;5.07;3.80;;;;;;;;;;5050279;28;20020;-71
2023/05/18 05:13:26;;;;;;;3.58;2.67;;;;;;;;;;5052802;28;20578;-58
2023/05/18 05:15:52;;;;;;;4.20;2.65;;;;;;;;;;5043179;28;20029;-69
2023/05/18 05:18:18;;;;;;;3.70;2.63;;;;;;;;;;5047801;28;20037;-56
2023/05/18 05:20:44;;;;;;;3.15;2.35;;;;;;;;;;5052012;28;20028;-57
2023/05/18 05:23:10;;;;;;;4.60;3.10;;;;;;;;;;5045327;28;20484;-58
2023/05/18 05:25:36;;;;;;;5.13;3.00;;;;;;;;;;5047631;28;20029;-57
2023/05/18 05:28:02;;;;;;;3.70;2.53;;;;;;;;;;5018319;28;20095;-58
2023/05/18 05:30:29;;;;;;;6.00;3.13;;;;;;;;;;5040210;28;20034;-57
2023/05/18 05:32:55;;;;;;;4.43;2.58;;;;;;;;;;5048683;28;20026;-57
2023/05/18 05:35:21;;;;;;;4.30;2.70;;;;;;;;;;5036010;28;20731;-57
2023/05/18 05:37:47;;;;;;;6.95;3.88;;;;;;;;;;5044853;28;20033;-69
2023/05/18 05:40:13;;;;;;;6.53;2.78;;;;;;;;;;5046820;28;20044;-62
2023/05/18 05:42:40;;;;;;;8.75;5.38;;;;;;;;;;5045886;28;20029;-63
2023/05/18 05:45:07;;;;;;;5.13;3.13;;;;;;;;;;5053723;28;20545;-57
2023/05/18 05:47:33;;;;;;;6.60;4.13;;;;;;;;;;5041266;28;20032;-57
2023/05/18 05:49:59;;;;;;;4.55;2.17;;;;;;;;;;5038004;28;20036;-57
2023/05/18 05:52:27;;;;;;;3.42;2.40;;;;;;;;;;5052547;28;20029;-69
2023/05/18 05:54:53;;;;;;;3.80;2.42;;;;;;;;;;5040735;28;20453;-68
2023/05/18 05:57:19;;;;;;;4.00;2.40;;;;;;;;;;5038527;28;20052;-69
2023/05/18 05:59:46;;;;;;;6.85;4.18;;;;;;;;;;5053926;28;20033;-57
2023/05/18 06:02:12;;;;;;;5.25;3.45;;;;;;;;;;5047232;28;20028;-57
2023/05/18 06:04:39;;;;;;;5.30;3.70;;;;;;;;;;5052088;28;20057;-58
2023/05/18 06:07:05;;;;;;;6.32;2.80;;;;;;;;;;5045729;28;20119;-62
2023/05/18 06:09:31;;;;;;;5.68;4.43;;;;;;;;;;5047689;28;20024;-56
2023/05/18 06:11:57;;;;;;;3.90;2.90;;;;;;;;;;5051680;28;20033;-68
2023/05/18 06:14:23;;;;;;;3.33;2.22;;;;;;;;;;5056983;28;20027;-60
2023/05/18 06:16:49;;;;;;;3.40;2.00;;;;;;;;;;5037815;28;20033;-63
2023/05/18 06:19:15;;;;;;;2.90;2.17;;;;;;;;;;5040867;28;20020;-57
2023/05/18 06:21:41;;;;;;;3.28;1.85;;;;;;;;;;5046658;28;20056;-62
2023/05/18 06:24:08;;;;;;;6.30;4.30;;;;;;;;;;5037311;28;20025;-71
2023/05/18 06:26:34;;;;;;;4.72;2.92;;;;;;;;;;5050336;28;20075;-70
2023/05/18 06:29:00;;;;;;;4.13;2.30;;;;;;;;;;5045175;28;20066;-69
2023/05/18 06:31:26;;;;;;;4.50;3.10;;;;;;;;;;5038493;28;20576;-62
2023/05/18 06:33:52;;;;;;;18.67;10.77;;;;;;;;;;5043563;28;20113;-68
2023/05/18 06:36:18;;;;;;;9.40;5.20;;;;;;;;;;5035382;28;20040;-62
2023/05/18 06:38:44;;;;;;;6.25;3.70;;;;;;;;;;5051209;28;20036;-57
2023/05/18 06:41:10;;;;;;;4.80;2.03;;;;;;;;;;5030605;28;20025;-69
2023/05/18 06:43:36;;;;;;;9.48;5.93;;;;;;;;;;5037125;28;20044;-58
2023/05/18 06:46:02;;;;;;;3.50;2.03;;;;;;;;;;5046396;28;20040;-60
2023/05/18 06:48:28;;;;;;;3.08;2.00;;;;;;;;;;5056149;28;20355;-69
2023/05/18 06:50:55;;;;;;;2.70;1.60;;;;;;;;;;5056935;28;20025;-58
2023/05/18 06:53:24;;;;;;;2.45;1.50;;;;;;;;;;5056388;28;20028;-61
2023/05/18 06:55:50;;;;;;;6.28;4.07;;;;;;;;;;5049739;28;20077;-60
2023/05/18 06:58:16;;;;;;;2.53;1.65;;;;;;;;;;5028482;28;20107;-62
2023/05/18 07:00:42;;;;;;;2.58;1.33;;;;;;;;;;5045848;28;20100;-61
2023/05/18 07:03:08;;;;;;;4.38;1.77;;;;;;;;;;5043672;28;20057;-57
2023/05/18 07:05:34;;;;;;;2.95;1.90;;;;;;;;;;5043816;28;20033;-67
2023/05/18 07:08:00;;;;;;;4.13;2.15;;;;;;;;;;5040436;28;20087;-59
2023/05/18 07:10:27;;;;;;;2.45;1.73;;;;;;;;;;5053660;28;20033;-59
2023/05/18 07:12:53;;;;;;;2.22;1.45;;;;;;;;;;5029462;28;20410;-66
2023/05/18 07:15:19;;;;;;;2.85;1.75;;;;;;;;;;5042579;28;20039;-58
2023/05/18 07:17:45;;;;;;;3.15;1.77;;;;;;;;;;5038363;28;20040;-58
2023/05/18 07:20:12;;;;;;;2.63;1.73;;;;;;;;;;5042270;28;20126;-62
2023/05/18 07:22:38;;;;;;;2.28;1.48;;;;;;;;;;5045426;28;20094;-59
2023/05/18 07:25:04;;;;;;;4.60;2.70;;;;;;;;;;5046942;28;20021;-58
2023/05/18 07:27:32;;;;;;;2.95;1.75;;;;;;;;;;5036870;28;20025;-63
2023/05/18 07:29:58;;;;;;;3.22;2.13;;;;;;;;;;5031187;28;20025;-59
2023/05/18 07:32:24;;;;;;;3.67;2.53;;;;;;;;;;5046679;28;20100;-63
2023/05/18 07:34:50;;;;;;;3.25;1.92;;;;;;;;;;5035824;28;20025;-67
2023/05/18 07:37:16;;;;;;;5.88;1.90;;;;;;;;;;5063951;28;20036;-62
2023/05/18 07:39:42;;;;;;;3.67;2.47;;;;;;;;;;5063278;28;20078;-59
2023/05/18 07:42:10;;;;;;;5.35;2.58;;;;;;;;;;5063138;28;20394;-66
2023/05/18 07:44:36;;;;;;;2.25;1.55;;;;;;;;;;5066743;28;20041;-58
2023/05/18 07:47:02;;;;;;;6.43;2.42;;;;;;;;;;5065091;28;20153;-62
2023/05/18 07:49:28;;;;;;;2.95;2.10;;;;;;;;;;5041728;28;20131;-62
2023/05/18 07:51:54;;;;;;;3.97;2.53;;;;;;;;;;5040957;28;20025;-58
2023/05/18 07:54:20;;;;;;;2.50;1.70;;;;;;;;;;5040885;28;20462;-62
2023/05/18 07:56:46;;;;;;;4.15;1.83;;;;;;;;;;5039544;28;20066;-64
2023/05/18 07:59:12;;;;;;;2.55;1.83;;;;;;;;;;5046697;28;20190;-58
2023/05/18 08:01:40;;;;;;;3.47;1.95;;;;;;;;;;5051922;28;20502;-57
2023/05/18 08:04:06;;;;;;;2.88;1.73;;;;;;;;;;5047865;28;20017;-66
2023/05/18 08:06:32;;;;;;;3.90;2.20;;;;;;;;;;5047330;28;20041;-68
2023/05/18 08:08:58;;;;;;;2.42;1.80;;;;;;;;;;5045501;28;20057;-68
2023/05/18 08:11:24;;;;;;;4.18;2.42;;;;;;;;;;5040389;28;20116;-58
2023/05/18 08:13:50;;;;;;;3.50;2.33;;;;;;;;;;5053958;28;20108;-66
2023/05/18 08:16:17;;;;;;;3.10;2.08;;;;;;;;;;5053699;28;20467;-58
2023/05/18 08:18:43;;;;;;;3.40;1.90;;;;;;;;;;5048579;28;20044;-61
2023/05/18 08:21:09;;;;;;;4.32;2.50;;;;;;;;;;5037607;28;20475;-67
2023/05/18 08:23:35;;;;;;;8.40;6.47;;;;;;;;;;5051405;28;20070;-62
2023/05/18 08:26:02;;;;;;;3.67;3.05;;;;;;;;;;5045684;28;20501;-65
2023/05/18 08:28:28;;;;;;;5.50;4.43;;;;;;;;;;5037051;28;20061;-66
2023/05/18 08:30:55;;;;;;;3.40;3.08;;;;;;;;;;5041580;28;20123;-58
2023/05/18 08:33:22;;;;;;;4.25;2.88;;;;;;;;;;5042704;28;20028;-57
2023/05/18 08:35:48;;;;;;;5.13;2.70;;;;;;;;;;5041081;28;20420;-68
2023/05/18 08:38:15;;;;;;;4.50;3.00;;;;;;;;;;5041141;28;20484;-61
2023/05/18 08:41:02;;;;;;;4.50;3.00;;;;;;;;;;5032132;28;20065;-58
2023/05/18 08:43:32;;;;;;;4.82;3.25;;;;;;;;;;5049517;28;20107;-57
2023/05/18 08:46:05;;;;;;;5.22;3.63;;;;;;;;;;5046248;28;20095;-57
2023/05/18 08:48:32;;;;;;;;;;;;;;;;;;5039637;28;20043;-63
2023/05/18 08:50:58;;;;;;;5.88;3.03;;;;;;;;;;5043978;28;19922;-58
2023/05/18 08:53:25;;;;;;;3.85;2.60;;;;;;;;;;5044414;28;20041;-57
2023/05/18 08:55:53;;;;;;;4.43;2.78;;;;;;;;;;5049920;28;20411;-62
2023/05/18 08:58:20;;;;;;;3.42;1.98;;;;;;;;;;5056210;28;20050;-58
2023/05/18 09:00:51;;;;;;;3.33;2.25;;;;;;;;;;5041402;28;20044;-63
2023/05/18 09:03:17;;;;;;;3.88;2.38;;;;;;;;;;5049494;28;20430;-70
2023/05/18 09:05:43;;;;;;;4.28;2.42;;;;;;;;;;5044202;28;20025;-62
2023/05/18 09:08:09;;;;;;;5.50;3.05;;;;;;;;;;5060585;28;20032;-69
2023/05/18 09:10:36;;;;;;;4.60;3.03;;;;;;;;;;5067143;28;20108;-65
2023/05/18 09:13:04;;;;;;;3.53;2.15;;;;;;;;;;5061409;28;20048;-64
2023/05/18 09:15:30;;;;;;;3.03;2.20;;;;;;;;;;5053259;28;20021;-60
2023/05/18 09:17:56;;;;;;;2.60;1.92;;;;;;;;;;5060893;28;20428;-58
2023/05/18 09:20:23;;;;;;;3.10;1.98;;;;;;;;;;5057209;28;20020;-67
2023/05/18 09:22:50;;;;;;;3.83;2.03;;;;;;;;;;5070371;28;20389;-60
2023/05/18 09:25:17;;;;;;;3.53;2.35;;;;;;;;;;5052372;28;20036;-58
2023/05/18 09:27:43;;;;;;;2.80;1.95;;;;;;;;;;5050907;28;20037;-57
2023/05/18 09:30:10;;;;;;;2.67;2.00;;;;;;;;;;5067793;28;20031;-60
2023/05/18 09:32:36;;;;;;;2.83;1.80;;;;;;;;;;5070352;28;20071;-59
2023/05/18 09:35:06;;;;;;;2.95;2.00;;;;;;;;;;5070213;28;20147;-58
2023/05/18 09:37:33;;;;;;;2.85;1.95;;;;;;;;;;5070416;28;20470;-64
2023/05/18 09:40:00;;;;;;;4.53;3.33;;;;;;;;;;5070004;28;20108;-61
2023/05/18 09:42:44;;;;;;;3.75;2.65;;;;;;;;;;5057582;28;20021;-57
2023/05/18 09:45:18;;;;;;;3.38;2.28;;;;;;;;;;5058310;28;20025;-70
2023/05/18 09:47:44;;;;;;;;;;;;;;;;;;5053632;28;20052;-57
2023/05/18 09:50:10;;;;;;;4.00;2.63;;;;;;;;;;5049759;28;19939;-62
2023/05/18 09:52:46;;;;;;;4.40;2.72;;;;;;;;;;5055546;28;20035;-59
2023/05/18 09:55:12;;;;;;;5.20;2.95;;;;;;;;;;5069438;28;20056;-57
2023/05/18 09:57:48;;;;;;;4.40;3.50;;;;;;;;;;5076964;28;20554;-67
2023/05/18 10:00:15;;;;;;;4.53;3.05;;;;;;;;;;5074175;28;20150;-64
2023/05/18 10:02:44;;;;;;;4.15;3.33;;;;;;;;;;5069952;28;20098;-70
2023/05/18 10:05:26;;;;;;;4.45;3.20;;;;;;;;;;5071917;28;20032;-68
2023/05/18 10:07:53;;;;;;;3.47;2.42;;;;;;;;;;5060439;28;20085;-68
2023/05/18 10:10:20;;;;;;;3.38;2.40;;;;;;;;;;5082884;28;20012;-69
2023/05/18 10:12:47;;;;;;;3.90;2.72;;;;;;;;;;5081900;28;20050;-67
2023/05/18 10:15:18;;;;;;;4.13;2.97;;;;;;;;;;5076425;28;20087;-68
2023/05/18 10:17:46;;;;;;;4.53;3.15;;;;;;;;;;5076160;28;20497;-71
2023/05/18 10:20:14;;;;;;;3.72;2.45;;;;;;;;;;5069455;28;20028;-68
2023/05/18 10:22:41;;;;;;;3.40;2.45;;;;;;;;;;5083595;28;20028;-61
2023/05/18 10:25:09;;;;;;;4.25;2.88;;;;;;;;;;5089447;28;20169;-62
2023/05/18 10:27:36;;;;;;;3.58;2.47;;;;;;;;;;5089638;28;20032;-57
2023/05/18 10:30:06;;;;;;;4.18;2.47;;;;;;;;;;5081131;28;20070;-57
2023/05/18 10:32:34;;;;;;;4.05;2.40;;;;;;;;;;5082524;28;20643;-58
2023/05/18 10:35:00;;;;;;;4.03;2.92;;;;;;;;;;5069143;28;20039;-58
2023/05/18 10:37:31;;;;;;;5.32;2.70;;;;;;;;;;5071370;28;20554;-66
2023/05/18 10:39:58;;;;;;;3.63;2.30;;;;;;;;;;5079339;28;20461;-58
2023/05/18 10:42:25;;;;;;;4.55;2.50;;;;;;;;;;5072147;28;20115;-61
2023/05/18 10:44:56;;;;;;;4.93;3.30;;;;;;;;;;5079430;28;20340;-69
2023/05/18 10:47:25;;;;;;;4.85;2.83;;;;;;;;;;5072782;28;20489;-68
2023/05/18 10:49:51;;;;;;;6.05;3.97;;;;;;;;;;5077775;28;20525;-65
2023/05/18 10:52:17;;;;;;;5.40;3.90;;;;;;;;;;5085368;28;20386;-67
2023/05/18 10:54:44;;;;;;;5.97;2.95;;;;;;;;;;5089259;28;20024;-65
2023/05/18 10:57:15;;;;;;;3.35;2.10;;;;;;;;;;5058416;28;20059;-67
2023/05/18 10:59:43;;;;;;;4.50;2.80;;;;;;;;;;5057611;28;20028;-57
2023/05/18 11:02:13;;;;;;;4.20;2.70;;;;;;;;;;5048527;28;20036;-58
2023/05/18 11:04:39;;;;;;;3.75;2.90;;;;;;;;;;5060798;28;20025;-58
2023/05/18 11:07:11;;;;;;;5.00;3.65;;;;;;;;;;5049922;28;20017;-62
2023/05/18 11:09:40;;;;;;;3.75;2.28;;;;;;;;;;5049446;28;20025;-64
2023/05/18 11:12:11;;;;;;;3.15;2.10;;;;;;;;;;5066467;28;20512;-59
2023/05/18 11:14:46;;;;;;;5.45;3.58;;;;;;;;;;5065652;28;20161;-65
2023/05/18 11:17:22;;;;;;;4.03;1.98;;;;;;;;;;5043021;28;20428;-67
2023/05/18 11:20:07;;;;;;;2.97;1.98;;;;;;;;;;5058886;28;20513;-64
2023/05/18 11:22:48;;;;;;;4.10;3.20;;;;;;;;;;5072969;28;20432;-65
2023/05/18 11:25:24;;;;;;;3.20;2.30;;;;;;;;;;5072636;28;20414;-62
2023/05/18 11:27:54;;;;;;;3.20;2.40;;;;;;;;;;5069859;28;20063;-58
2023/05/18 11:30:47;;;;;;;4.57;2.30;;;;;;;;;;5052262;28;20018;-69
2023/05/18 11:33:31;;;;;;;3.07;2.13;;;;;;;;;;5037144;28;20073;-58
2023/05/18 11:36:03;;;;;;;4.40;2.08;;;;;;;;;;5068422;28;20445;-57
2023/05/18 11:38:49;;;;;;;3.00;1.90;;;;;;;;;;5062562;28;20031;-63
2023/05/18 11:41:34;;;;;;;3.38;2.20;;;;;;;;;;5037429;28;20372;-56
2023/05/18 11:44:08;;;;;;;13.45;12.05;;;;;;;;;;5072373;28;20029;-56
2023/05/18 11:46:34;;;;;;;148.63;112.13;;;;;;;;;;5062377;28;20352;-56
2023/05/18 11:49:04;;;;;;;181.90;108.32;;;;;;;;;;5065714;28;20359;-56
2023/05/18 11:51:31;;;;;;;144.57;90.65;;;;;;;;;;5063086;28;20017;-56
2023/05/18 11:53:58;;;;;;;20.45;12.55;;;;;;;;;;5071804;28;20027;-57
2023/05/18 11:56:25;;;;;;;11.82;8.68;;;;;;;;;;5061326;28;20049;-65
2023/05/18 11:59:11;;;;;;;65.43;48.50;;;;;;;;;;5055760;28;20129;-80
2023/05/18 12:01:37;;;;;;;44.40;31.80;;;;;;;;;;5072047;28;20021;-57
2023/05/18 12:04:04;;;;;;;31.45;23.27;;;;;;;;;;5051988;28;20368;-56
2023/05/18 12:06:31;;;;;;;21.52;16.65;;;;;;;;;;5052177;28;20414;-81
2023/05/18 12:08:58;;;;;;;10.40;6.93;;;;;;;;;;5058846;28;20082;-56
2023/05/18 12:11:25;;;;;;;8.82;6.32;;;;;;;;;;5058143;28;20447;-63
2023/05/18 12:13:52;;;;;;;8.95;5.50;;;;;;;;;;5059322;28;20020;-81
2023/05/18 12:16:18;;;;;;;7.65;5.93;;;;;;;;;;5055355;28;20116;-70
2023/05/18 12:18:51;;;;;;;6.07;4.22;;;;;;;;;;5070692;28;20036;-56
2023/05/18 12:21:26;;;;;;;5.13;3.20;;;;;;;;;;5067318;28;20560;-57
2023/05/18 12:23:59;;;;;;;18.50;8.10;;;;;;;;;;5050252;28;20025;-57
2023/05/18 12:26:27;;;;;;;6.60;3.38;;;;;;;;;;5067144;28;20505;-66
2023/05/18 12:28:53;;;;;;;4.03;2.67;;;;;;;;;;5058950;28;20799;-57
2023/05/18 12:31:19;;;;;;;28.35;12.90;;;;;;;;;;5049505;28;20024;-80
2023/05/18 12:33:46;;;;;;;5.85;3.45;;;;;;;;;;5059735;28;20029;-73
2023/05/18 12:36:15;;;;;;;4.15;2.38;;;;;;;;;;5054329;28;20016;-65
2023/05/18 12:38:41;;;;;;;5.50;2.85;;;;;;;;;;5069895;28;20038;-56
2023/05/18 12:41:07;;;;;;;3.80;2.40;;;;;;;;;;5051679;28;20020;-60
2023/05/18 12:43:34;;;;;;;3.53;2.20;;;;;;;;;;5061101;28;20017;-66
2023/05/18 12:46:03;;;;;;;5.47;3.30;;;;;;;;;;5069803;28;20020;-66
2023/05/18 12:48:36;;;;;;;6.72;4.55;;;;;;;;;;5057351;28;20021;-56
2023/05/18 12:51:03;;;;;;;5.10;4.00;;;;;;;;;;5049998;28;20039;-73
2023/05/18 12:53:42;;;;;;;7.35;4.72;;;;;;;;;;5062699;28;20154;-67
2023/05/18 12:56:10;;;;;;;5.88;3.60;;;;;;;;;;5045009;28;20064;-57
2023/05/18 12:58:36;;;;;;;8.15;5.13;;;;;;;;;;5084981;28;20097;-66
2023/05/18 13:01:11;;;;;;;8.30;5.07;;;;;;;;;;5081402;28;20145;-79
2023/05/18 13:03:42;;;;;;;6.03;4.88;;;;;;;;;;5072359;28;20030;-63
2023/05/18 13:06:08;;;;;;;6.50;4.90;;;;;;;;;;5079669;28;20091;-61
2023/05/18 13:08:35;;;;;;;9.85;6.03;;;;;;;;;;5082620;28;20020;-82
2023/05/18 13:11:05;;;;;;;7.15;5.82;;;;;;;;;;5070001;28;20396;-57
2023/05/18 13:13:31;;;;;;;10.05;7.40;;;;;;;;;;5073887;28;20024;-56
2023/05/18 13:16:00;;;;;;;12.07;7.90;;;;;;;;;;5077953;28;20535;-64
2023/05/18 13:18:27;;;;;;;8.65;5.88;;;;;;;;;;5082429;28;20044;-72
2023/05/18 13:20:55;;;;;;;12.15;9.30;;;;;;;;;;5068911;28;20021;-72
2023/05/18 13:23:26;;;;;;;14.27;9.10;;;;;;;;;;5069990;28;20470;-64
2023/05/18 13:25:52;;;;;;;17.67;13.60;;;;;;;;;;5089428;28;20051;-67
2023/05/18 13:28:19;;;;;;;10.95;8.95;;;;;;;;;;5075338;28;20028;-61
2023/05/18 13:30:47;;;;;;;10.90;7.10;;;;;;;;;;5089753;28;20422;-57
2023/05/18 13:33:13;;;;;;;19.77;15.13;;;;;;;;;;5075233;28;20024;-56
2023/05/18 13:35:43;;;;;;;14.50;10.95;;;;;;;;;;5075256;28;20035;-58
2023/05/18 13:38:09;;;;;;;19.35;11.88;;;;;;;;;;5075939;28;20024;-65
2023/05/18 13:40:36;;;;;;;53.60;26.33;;;;;;;;;;5075522;28;20874;-65
2023/05/18 13:43:02;;;;;;;14.80;11.80;;;;;;;;;;5076369;28;20047;-66
2023/05/18 13:45:29;;;;;;;17.25;11.90;;;;;;;;;;5087338;28;20541;-57
2023/05/18 13:47:56;;;;;;;13.60;10.07;;;;;;;;;;5067995;28;20108;-73
2023/05/18 13:50:22;;;;;;;14.15;9.07;;;;;;;;;;5069226;28;20027;-56
2023/05/18 13:52:49;;;;;;;7.97;6.18;;;;;;;;;;5076141;28;20055;-67
2023/05/18 13:55:15;;;;;;;6.35;5.18;;;;;;;;;;5087064;28;20447;-65
2023/05/18 13:57:41;;;;;;;7.32;5.40;;;;;;;;;;5056110;28;20040;-79
2023/05/18 14:00:12;;;;;;;6.75;5.55;;;;;;;;;;5067754;28;20044;-56
2023/05/18 14:02:41;;;;;;;9.07;7.03;;;;;;;;;;5059754;28;20079;-56
2023/05/18 14:05:07;;;;;;;5.55;4.15;;;;;;;;;;5050354;28;20079;-64
2023/05/18 14:07:36;;;;;;;16.67;9.55;;;;;;;;;;5066845;28;20056;-75
2023/05/18 14:10:02;;;;;;;12.50;8.60;;;;;;;;;;5066535;28;20070;-56
2023/05/18 14:12:28;;;;;;;16.52;7.07;;;;;;;;;;5067671;28;20017;-57
2023/05/18 14:14:54;;;;;;;28.98;13.10;;;;;;;;;;5067792;28;20059;-79
2023/05/18 14:17:20;;;;;;;23.88;10.02;;;;;;;;;;5060874;28;20067;-67
2023/05/18 14:22:25;;;;;;;10.20;6.10;;;;;;;;;;4936578;22;20097;-60
2023/05/18 14:24:51;;;;;;;7.43;6.40;;;;;;;;;;5041528;28;20029;-79
2023/05/18 14:27:19;;;;;;;598.45;298.63;;;;;;;;;;5046974;28;20039;-68
2023/05/18 14:29:45;;;;;;;209.93;91.30;;;;;;;;;;5049584;28;20037;-81